Time;durP1;ratioP1;P1;durP2;ratioP2;P2;SDS_P1;SDS_P2;PMS_P1;PMS_P2;Temp;Humidity;BMP_temperature;BMP_pressure;BME280_temperature;BME280_humidity;BME280_pressure;Samples;Min_cycle;Max_cycle;Signal;HPM_P1;HPM_P2
2021/01/21 00:00:58;;;;;;;;;;;13.70;99.90;;;13.11;100.00;100761.44;5071996;28;20291;-63
2021/01/21 00:03:26;;;;;;;;;;;;;;;13.11;100.00;100764.13;5072630;28;19993;-63
2021/01/21 00:05:54;;;;;;;;;;;13.70;99.90;;;13.10;100.00;100766.03;5072128;28;19977;-63
2021/01/21 00:08:21;;;;;;;;;;;13.70;99.90;;;13.08;100.00;100771.00;5072304;28;19925;-63
2021/01/21 00:10:48;;;;;;;;;;;13.60;99.90;;;13.11;100.00;100775.81;5072127;28;20277;-63
2021/01/21 00:13:15;;;;;;;;;;;13.70;99.90;;;13.10;100.00;100774.19;5072485;28;19933;-63
2021/01/21 00:15:42;;;;;;;;;;;13.70;99.90;;;13.09;100.00;100767.19;5071938;28;20303;-63
2021/01/21 00:18:09;;;;;;;;;;;13.70;99.90;;;13.06;100.00;100762.34;5072035;28;20395;-63
2021/01/21 00:20:37;;;;;;;;;;;13.70;99.90;;;13.03;100.00;100762.94;5071845;28;19978;-63
2021/01/21 00:23:05;;;;;;;;;;;13.60;99.90;;;13.02;100.00;100776.81;5072469;28;19936;-63
2021/01/21 00:25:32;;;;;;;;;;;13.60;99.90;;;12.99;100.00;100766.56;5071892;28;19928;-63
2021/01/21 00:27:59;;;;;;;;;;;13.50;99.90;;;12.98;100.00;100765.75;5071800;28;19924;-63
2021/01/21 00:30:26;;;;;;;;;;;13.60;99.90;;;12.96;100.00;100765.28;5071960;28;19924;-63
2021/01/21 00:32:53;;;;;;;;;;;13.50;99.90;;;12.94;100.00;100775.66;5072213;28;20338;-63
2021/01/21 00:35:20;;;;;;;;;;;13.50;99.90;;;12.94;100.00;100772.94;5071982;28;19931;-63
2021/01/21 00:37:48;;;;;;;;;;;13.50;99.90;;;12.92;100.00;100774.34;5071833;28;19928;-63
2021/01/21 00:40:16;;;;;;;;;;;13.50;99.90;;;12.92;100.00;100775.13;5071901;28;20308;-63
2021/01/21 00:42:43;;;;;;;;;;;13.50;99.90;;;12.90;100.00;100774.66;5071881;28;19982;-63
2021/01/21 00:45:11;;;;;;;;;;;13.50;99.90;;;12.91;100.00;100773.53;5072049;28;20283;-63
2021/01/21 00:47:38;;;;;;;;;;;13.50;99.90;;;12.90;100.00;100774.66;5071516;28;19925;-63
2021/01/21 00:50:06;;;;;;;;;;;13.50;99.90;;;12.93;100.00;100778.66;5071711;28;20368;-63
2021/01/21 00:52:33;;;;;;;;;;;13.50;99.90;;;12.95;100.00;100782.66;5071824;28;19970;-63
2021/01/21 00:55:01;;;;;;;;;;;13.50;99.90;;;13.01;100.00;100784.16;5071882;28;19929;-63
2021/01/21 00:57:29;;;;;;;;;;;13.60;99.90;;;13.07;100.00;100785.63;5071656;28;20315;-63
2021/01/21 00:59:59;;;;;;;;;;;13.60;99.90;;;13.12;100.00;100777.44;5071779;28;19925;-63
2021/01/21 01:02:26;;;;;;;;;;;13.70;99.90;;;13.21;100.00;100774.78;5071936;28;20326;-63
2021/01/21 01:04:53;;;;;;;;;;;13.80;99.90;;;13.26;100.00;100781.97;5071611;28;20283;-63
2021/01/21 01:07:21;;;;;;;;;;;13.90;99.90;;;13.31;100.00;100776.44;5075423;28;19993;-63
2021/01/21 01:09:48;;;;;;;;;;;13.90;99.90;;;13.35;100.00;100783.66;5075701;28;20372;-63
2021/01/21 01:12:16;;;;;;;;;;;14.00;99.90;;;13.35;100.00;100785.56;5075703;28;19932;-63
2021/01/21 01:14:43;;;;;;;;;;;14.00;99.90;;;13.39;100.00;100789.28;5075752;28;19935;-63
2021/01/21 01:17:10;;;;;;;;;;;14.00;99.90;;;13.43;100.00;100793.00;5075264;28;19928;-63
2021/01/21 01:19:37;;;;;;;;;;;14.10;99.90;;;13.41;100.00;100795.19;5075330;28;19932;-63
2021/01/21 01:22:05;;;;;;;;;;;14.00;99.90;;;13.44;100.00;100798.09;5075374;28;19925;-63
2021/01/21 01:24:32;;;;;;;;;;;14.00;99.90;;;13.42;100.00;100786.75;5075506;28;19933;-63
2021/01/21 01:26:59;;;;;;;;;;;14.00;99.90;;;13.44;100.00;100794.56;5074906;28;19928;-63
2021/01/21 01:29:28;;;;;;;;;;;14.10;99.90;;;13.45;100.00;100788.84;5075535;28;19924;-63
2021/01/21 01:31:55;;;;;;;;;;;14.10;99.90;;;13.47;100.00;100789.31;5075306;28;19929;-63
2021/01/21 01:34:22;;;;;;;;;;;14.10;99.90;;;13.49;100.00;100789.84;5075256;28;19925;-63
2021/01/21 01:36:49;;;;;;;;;;;14.10;99.90;;;13.47;100.00;100793.94;5074590;28;20284;-63
2021/01/21 01:39:17;;;;;;;;;;;14.10;99.90;;;13.45;100.00;100791.56;5075409;28;19932;-63
2021/01/21 01:41:44;;;;;;;;;;;14.10;99.90;;;13.40;100.00;100794.41;5074901;28;19924;-63
2021/01/21 01:44:11;;;;;;;;;;;14.00;99.90;;;13.36;100.00;100787.97;5075298;28;19924;-64
2021/01/21 01:46:39;;;;;;;;;;;14.00;99.90;;;13.37;100.00;100797.75;5074503;28;19928;-63
2021/01/21 01:49:07;;;;;;;;;;;14.00;99.90;;;13.30;100.00;100799.28;5074789;28;19924;-63
2021/01/21 01:51:34;;;;;;;;;;;13.90;99.90;;;13.24;100.00;100795.06;5074550;28;19925;-63
2021/01/21 01:54:01;;;;;;;;;;;13.80;99.90;;;13.24;100.00;100789.63;5075312;28;19947;-63
2021/01/21 01:56:28;;;;;;;;;;;13.80;99.90;;;13.18;100.00;100794.41;5074259;28;19925;-63
2021/01/21 01:58:57;;;;;;;;;;;13.80;99.90;;;13.13;100.00;100798.00;5075140;28;19928;-62
2021/01/21 02:01:24;;;;;;;;;;;13.70;99.90;;;13.07;100.00;100801.16;5074158;28;19925;-63
2021/01/21 02:03:52;;;;;;;;;;;13.70;99.90;;;13.03;100.00;100795.53;5074740;28;19936;-63
2021/01/21 02:06:19;;;;;;;;;;;13.60;99.90;;;12.97;100.00;100802.19;5074163;28;19936;-63
2021/01/21 02:08:47;;;;;;;;;;;13.60;99.90;;;12.92;100.00;100810.41;5074979;28;19924;-64
2021/01/21 02:11:21;;;;;;;;;;;13.50;99.90;;;12.87;100.00;100805.09;5074009;28;20299;-63
2021/01/21 02:13:54;;;;;;;;;;;13.50;99.90;;;12.85;100.00;100831.75;5074891;28;19924;-63
2021/01/21 02:16:31;;;;;;;;;;;13.40;99.90;;;12.80;100.00;100823.69;5073282;28;20291;-63
2021/01/21 02:19:15;;;;;;;;;;;13.40;99.90;;;12.78;100.00;100831.34;5074533;28;19925;-63
2021/01/21 02:22:08;;;;;;;;;;;13.40;99.90;;;12.80;100.00;100844.59;5074010;28;19925;-63
2021/01/21 02:25:05;;;;;;;;;;;13.40;99.90;;;12.83;100.00;100844.81;5074312;28;20395;-63
2021/01/21 02:27:35;;;;;;;;;;;;;;;12.85;100.00;100848.03;5074061;28;19928;-63
2021/01/21 02:30:09;;;;;;;;;;;13.40;99.90;;;12.88;100.00;100847.44;5074011;28;19920;-63
2021/01/21 02:32:51;;;;;;;;;;;13.50;99.90;;;12.93;100.00;100852.75;5074631;28;19924;-63
2021/01/21 02:35:23;;;;;;;;;;;13.50;99.90;;;13.02;100.00;100847.38;5073955;28;19931;-63
2021/01/21 02:37:54;;;;;;;;;;;13.60;99.90;;;13.09;100.00;100850.53;5073895;28;19932;-63
2021/01/21 02:40:22;;;;;;;;;;;13.70;99.90;;;13.14;100.00;100855.84;5073863;28;19925;-63
2021/01/21 02:42:50;;;;;;;;;;;13.80;99.90;;;13.20;100.00;100853.81;5074125;28;19985;-63
2021/01/21 02:45:17;;;;;;;;;;;13.80;99.90;;;13.26;100.00;100858.00;5073804;28;20305;-63
2021/01/21 02:47:44;;;;;;;;;;;13.90;99.90;;;13.27;100.00;100865.88;5073764;28;20338;-63
2021/01/21 02:50:12;;;;;;;;;;;13.90;99.90;;;13.31;100.00;100866.06;5073456;28;20284;-63
2021/01/21 02:52:44;;;;;;;;;;;13.90;99.90;;;13.35;100.00;100872.47;5073956;28;19925;-63
2021/01/21 02:55:22;;;;;;;;;;;14.00;99.90;;;13.38;100.00;100872.66;5073796;28;19928;-63
2021/01/21 02:57:57;;;;;;;;;;;14.00;99.90;;;13.43;100.00;100869.03;5073510;28;19928;-63
2021/01/21 03:00:24;;;;;;;;;;;14.10;99.90;;;13.46;100.00;100863.81;5073449;28;19924;-63
2021/01/21 03:02:56;;;;;;;;;;;14.10;99.90;;;13.47;100.00;100870.81;5073736;28;19950;-63
2021/01/21 03:05:23;;;;;;;;;;;14.10;99.90;;;13.46;100.00;100877.38;5073233;28;19924;-63
2021/01/21 03:07:52;;;;;;;;;;;14.10;99.90;;;13.49;100.00;100881.41;5073205;28;19931;-63
2021/01/21 03:10:20;;;;;;;;;;;14.10;99.90;;;13.49;100.00;100876.78;5073237;28;20382;-63
2021/01/21 03:12:55;;;;;;;;;;;14.10;99.90;;;13.51;100.00;100882.69;5073379;28;19928;-63
2021/01/21 03:15:23;;;;;;;;;;;14.10;99.90;;;13.50;100.00;100888.41;5073392;28;19925;-63
2021/01/21 03:17:50;;;;;;;;;;;14.10;99.90;;;13.48;100.00;100887.94;5073029;28;20383;-63
2021/01/21 03:20:18;;;;;;;;;;;14.10;99.90;;;13.48;100.00;100886.03;5072973;28;20283;-63
2021/01/21 03:22:45;;;;;;;;;;;14.10;99.90;;;13.46;100.00;100896.41;5073078;28;19987;-63
2021/01/21 03:25:14;;;;;;;;;;;14.00;99.90;;;13.47;100.00;100886.31;5073002;28;19936;-63
2021/01/21 03:27:41;;;;;;;;;;;14.00;99.90;;;13.44;100.00;100890.44;5072446;28;19924;-63
2021/01/21 03:30:09;;;;;;;;;;;14.10;99.90;;;13.44;100.00;100895.88;5072827;28;19932;-63
2021/01/21 03:32:36;;;;;;;;;;;14.10;99.90;;;13.45;100.00;100893.97;5073000;28;20425;-63
2021/01/21 03:35:04;;;;;;;;;;;14.00;99.90;;;13.46;100.00;100890.16;5072724;28;19932;-63
2021/01/21 03:37:32;;;;;;;;;;;14.10;99.90;;;13.48;100.00;100894.16;5072621;28;19928;-63
2021/01/21 03:39:59;;;;;;;;;;;14.10;99.90;;;13.56;100.00;100898.06;5072910;28;19921;-63
2021/01/21 03:42:27;;;;;;;;;;;14.20;99.90;;;13.55;100.00;100891.03;5072713;28;19978;-63
2021/01/21 03:44:54;;;;;;;;;;;14.20;99.90;;;13.54;100.00;100887.50;5072798;28;19924;-63
2021/01/21 03:47:21;;;;;;;;;;;14.10;99.90;;;13.51;100.00;100896.28;5072660;28;19932;-63
2021/01/21 03:49:48;;;;;;;;;;;14.10;99.90;;;13.48;100.00;100890.66;5072444;28;19924;-63
2021/01/21 03:52:15;;;;;;;;;;;14.10;99.90;;;13.46;100.00;100879.28;5072359;28;19932;-64
2021/01/21 03:54:43;;;;;;;;;;;14.10;99.90;;;13.45;100.00;100883.09;5072687;28;19951;-64
2021/01/21 03:57:10;;;;;;;;;;;14.10;99.90;;;13.43;100.00;100869.03;5072369;28;19981;-63
2021/01/21 03:59:38;;;;;;;;;;;14.10;99.90;;;13.40;100.00;100881.34;5072745;28;19932;-62
2021/01/21 04:02:05;;;;;;;;;;;14.00;99.90;;;13.37;100.00;100897.44;5072291;28;20279;-63
2021/01/21 04:04:32;;;;;;;;;;;14.00;99.90;;;13.32;100.00;100892.09;5072362;28;19935;-63
2021/01/21 04:06:59;;;;;;;;;;;13.90;99.90;;;13.30;100.00;100880.75;5071903;28;19928;-63
2021/01/21 04:09:26;;;;;;;;;;;13.90;99.90;;;13.27;100.00;100890.31;5072618;28;19970;-63
2021/01/21 04:11:54;;;;;;;;;;;13.90;99.90;;;13.24;100.00;100888.19;5072005;28;19939;-63
2021/01/21 04:14:21;;;;;;;;;;;13.90;99.90;;;13.25;100.00;100889.81;5072555;28;19990;-63
2021/01/21 04:16:49;;;;;;;;;;;13.80;99.90;;;13.24;100.00;100880.06;5071859;28;19924;-63
2021/01/21 04:19:16;;;;;;;;;;;13.80;99.90;;;13.23;100.00;100881.16;5072590;28;19928;-63
2021/01/21 04:21:43;;;;;;;;;;;13.80;99.90;;;13.25;100.00;100883.59;5071798;28;19929;-62
2021/01/21 04:24:11;;;;;;;;;;;13.80;99.90;;;13.26;100.00;100882.44;5072364;28;20295;-63
2021/01/21 04:26:38;;;;;;;;;;;13.80;99.90;;;13.25;100.00;100880.88;5071813;28;19931;-63
2021/01/21 04:29:05;;;;;;;;;;;13.80;99.90;;;13.24;100.00;100887.41;5072582;28;19924;-64
2021/01/21 04:31:32;;;;;;;;;;;13.80;99.90;;;13.19;100.00;100888.31;5071654;28;20342;-63
2021/01/21 04:34:00;;;;;;;;;;;13.80;99.90;;;13.23;100.00;100885.78;5072436;28;19948;-63
2021/01/21 04:36:27;;;;;;;;;;;13.80;99.90;;;13.24;100.00;100884.69;5071365;28;19928;-63
2021/01/21 04:38:55;;;;;;;;;;;13.80;99.90;;;13.25;100.00;100894.44;5072348;28;20299;-65
2021/01/21 04:41:22;;;;;;;;;;;13.90;99.90;;;13.26;100.00;100890.59;5071710;28;19925;-63
2021/01/21 04:43:49;;;;;;;;;;;13.90;99.90;;;13.25;100.00;100880.88;5072192;28;19924;-63
2021/01/21 04:46:17;;;;;;;;;;;13.90;99.90;;;13.26;100.00;100885.16;5071375;28;19982;-63
2021/01/21 04:48:45;;;;;;;;;;;13.90;99.90;;;13.24;100.00;100890.09;5072260;28;20360;-63
2021/01/21 04:51:14;;;;;;;;;;;13.80;99.90;;;13.20;100.00;100887.19;5071530;28;19929;-63
2021/01/21 04:53:49;;;;;;;;;;;13.80;99.90;;;13.16;100.00;100885.41;5072112;28;19947;-63
2021/01/21 04:56:25;;;;;;;;;;;13.80;99.90;;;13.13;100.00;100879.47;5071384;28;20288;-63
2021/01/21 04:58:54;;;;;;;;;;;13.70;99.90;;;13.07;100.00;100877.94;5072247;28;19924;-63
2021/01/21 05:01:22;;;;;;;;;;;13.70;99.90;;;13.04;100.00;100883.97;5071638;28;19931;-63
2021/01/21 05:03:49;;;;;;;;;;;13.70;99.90;;;13.00;100.00;100884.91;5072024;28;19978;-64
2021/01/21 05:06:17;;;;;;;;;;;13.60;99.90;;;12.96;100.00;100890.13;5071344;28;19986;-63
2021/01/21 05:08:45;;;;;;;;;;;13.60;99.90;;;12.97;100.00;100886.31;5071897;28;19925;-63
2021/01/21 05:11:12;;;;;;;;;;;13.60;99.90;;;12.95;100.00;100891.22;5071295;28;19924;-63
2021/01/21 05:13:39;;;;;;;;;;;13.50;99.90;;;12.95;100.00;100893.16;5071802;28;19928;-63
2021/01/21 05:16:07;;;;;;;;;;;13.60;99.90;;;12.88;100.00;100890.84;5071157;28;19928;-63
2021/01/21 05:18:36;;;;;;;;;;;13.50;99.90;;;12.86;100.00;100884.91;5071954;28;19974;-63
2021/01/21 05:21:04;;;;;;;;;;;13.50;99.90;;;12.84;100.00;100895.28;5071300;28;19925;-64
2021/01/21 05:23:33;;;;;;;;;;;;;;;12.87;100.00;100893.84;5071506;28;19924;-63
2021/01/21 05:26:00;;;;;;;;;;;;;;;12.87;100.00;100889.22;5071294;28;19925;-63
2021/01/21 05:28:28;;;;;;;;;;;;;;;12.87;100.00;100883.81;5071987;28;19932;-63
2021/01/21 05:30:55;;;;;;;;;;;;;;;12.89;100.00;100889.72;5071146;28;19935;-63
2021/01/21 05:33:22;;;;;;;;;;;;;;;12.91;100.00;100884.00;5071777;28;19925;-63
2021/01/21 05:35:51;;;;;;;;;;;;;;;12.97;100.00;100877.38;5071411;28;20517;-63
2021/01/21 05:38:21;;;;;;;;;;;;;;;13.00;100.00;100876.75;5071310;28;19925;-63
2021/01/21 05:40:49;;;;;;;;;;;;;;;13.05;100.00;100885.59;5071189;28;19929;-63
2021/01/21 05:43:17;;;;;;;;;;;;;;;13.08;100.00;100885.00;5071442;28;19932;-63
2021/01/21 05:45:46;;;;;;;;;;;;;;;13.16;100.00;100893.56;5071269;28;19938;-63
2021/01/21 05:48:13;;;;;;;;;;;;;;;13.21;100.00;100890.72;5071370;28;19928;-63
2021/01/21 05:50:41;;;;;;;;;;;13.90;99.90;;;13.27;100.00;100894.94;5070768;28;19924;-63
2021/01/21 05:53:09;;;;;;;;;;;13.90;99.90;;;13.28;100.00;100902.78;5074795;28;19928;-63
2021/01/21 05:55:38;;;;;;;;;;;13.90;99.90;;;13.32;100.00;100911.91;5074602;28;19924;-63
2021/01/21 05:58:07;;;;;;;;;;;14.00;99.90;;;13.34;100.00;100911.63;5074869;28;20389;-63
2021/01/21 06:00:34;;;;;;;;;;;14.00;99.90;;;13.36;100.00;100907.50;5074390;28;20429;-63
2021/01/21 06:03:02;;;;;;;;;;;14.00;99.90;;;13.38;100.00;100899.81;5074855;28;19978;-63
2021/01/21 06:05:29;;;;;;;;;;;14.00;99.90;;;13.41;100.00;100904.66;5074546;28;19931;-63
2021/01/21 06:07:56;;;;;;;;;;;14.00;99.90;;;13.45;100.00;100907.56;5074324;28;19924;-63
2021/01/21 06:10:23;;;;;;;;;;;14.10;99.90;;;13.45;100.00;100911.09;5074550;28;20387;-63
2021/01/21 06:12:52;;;;;;;;;;;14.10;99.90;;;13.50;100.00;100916.38;5074644;28;20394;-63
2021/01/21 06:15:21;;;;;;;;;;;14.10;99.90;;;13.49;100.00;100914.00;5074322;28;19982;-63
2021/01/21 06:17:50;;;;;;;;;;;14.10;99.90;;;13.50;100.00;100918.28;5074379;28;19986;-63
2021/01/21 06:20:18;;;;;;;;;;;14.10;99.90;;;13.50;100.00;100923.72;5074357;28;19932;-63
2021/01/21 06:22:46;;;;;;;;;;;14.10;99.90;;;13.50;100.00;100921.00;5074275;28;20338;-63
2021/01/21 06:25:15;;;;;;;;;;;14.10;99.90;;;13.49;100.00;100906.66;5074081;28;19925;-63
2021/01/21 06:27:44;;;;;;;;;;;14.10;99.90;;;13.39;100.00;100911.50;5074305;28;20303;-63
2021/01/21 06:30:15;;;;;;;;;;;14.00;99.90;;;13.30;100.00;100924.19;5074266;28;20299;-63
2021/01/21 06:32:50;;;;;;;;;;;14.00;99.90;;;13.22;100.00;100923.00;5074558;28;19935;-63
2021/01/21 06:35:21;;;;;;;;;;;13.90;99.90;;;13.13;100.00;100936.47;5074070;28;20003;-63
2021/01/21 06:37:53;;;;;;;;;;;13.80;99.90;;;13.08;100.00;100933.06;5073746;28;19925;-64
2021/01/21 06:40:21;;;;;;;;;;;13.70;99.90;;;13.05;100.00;100944.50;5074050;28;20283;-63
2021/01/21 06:42:56;;;;;;;;;;;13.60;99.90;;;13.02;100.00;100937.78;5074158;28;19928;-63
2021/01/21 06:45:23;;;;;;;;;;;13.60;99.90;;;13.01;100.00;100940.81;5073886;28;19960;-63
2021/01/21 06:47:51;;;;;;;;;;;13.60;99.90;;;12.96;100.00;100936.28;5073619;28;19936;-63
2021/01/21 06:50:19;;;;;;;;;;;13.60;99.90;;;12.96;100.00;100935.47;5073604;28;19924;-63
2021/01/21 06:52:46;;;;;;;;;;;13.60;99.90;;;12.95;100.00;100942.81;5074185;28;19924;-63
2021/01/21 06:55:14;;;;;;;;;;;13.60;99.90;;;12.96;100.00;100941.69;5073365;28;19925;-63
2021/01/21 06:57:42;;;;;;;;;;;13.60;99.90;;;12.94;100.00;100937.69;5073350;28;19932;-63
2021/01/21 07:00:11;;;;;;;;;;;13.50;99.90;;;12.92;100.00;100937.97;5073817;28;19947;-63
2021/01/21 07:02:46;;;;;;;;;;;13.60;99.90;;;12.93;100.00;100931.44;5073079;28;19979;-63
2021/01/21 07:05:15;;;;;;;;;;;13.50;99.90;;;12.92;100.00;100927.13;5073272;28;19932;-63
2021/01/21 07:08:06;;;;;;;;;;;13.50;99.90;;;12.92;100.00;100934.47;5073109;28;19932;-63
2021/01/21 07:10:40;;;;;;;;;;;13.50;99.90;;;12.91;100.00;100936.38;5073336;28;20027;-63
2021/01/21 07:13:08;;;;;;;;;;;13.50;99.90;;;12.91;100.00;100930.16;5073832;28;19925;-63
2021/01/21 07:15:43;;;;;;;;;;;13.50;99.90;;;12.93;100.00;100928.75;5073044;28;19929;-63
2021/01/21 07:18:21;;;;;;;;;;;13.60;99.90;;;12.98;100.00;100934.06;5073153;28;19928;-63
2021/01/21 07:21:09;;;;;;;;;;;13.60;99.90;;;13.12;100.00;100934.09;5073109;28;19951;-63
2021/01/21 07:23:42;;;;;;;;;;;13.70;99.90;;;13.26;100.00;100934.03;5073379;28;19924;-63
2021/01/21 07:26:36;;;;;;;;;;;13.90;99.90;;;13.36;100.00;100941.97;5072372;28;19924;-65
2021/01/21 07:29:05;;;;;;;;;;;14.00;99.90;;;13.40;100.00;100940.28;5073501;28;19924;-63
2021/01/21 07:32:05;;;;;;;;;;;14.00;99.90;;;13.46;100.00;100949.91;5072715;28;19924;-63
2021/01/21 07:34:40;;;;;;;;;;;14.10;99.90;;;13.49;100.00;100944.69;5073270;28;19978;-63
2021/01/21 07:37:16;;;;;;;;;;;14.20;99.90;;;13.50;100.00;100940.84;5072375;28;19978;-63
2021/01/21 07:39:53;;;;;;;;;;;14.10;99.90;;;13.55;100.00;100929.06;5072933;28;19929;-63
2021/01/21 07:42:21;;;;;;;;;;;14.20;99.90;;;13.57;100.00;100937.72;5073095;28;19950;-63
2021/01/21 07:44:55;;;;;;;;;;;14.20;99.90;;;13.60;100.00;100959.63;5072877;28;20295;-63
2021/01/21 07:47:27;;;;;;;;;;;14.30;99.90;;;13.65;100.00;100988.59;5072336;28;19931;-63
2021/01/21 07:50:33;;;;;;;;;;;14.30;99.90;;;13.65;100.00;100981.25;5072503;28;19931;-63
2021/01/21 07:53:03;;;;;;;;;;;14.30;99.90;;;13.58;100.00;100983.59;5073086;28;20368;-63
2021/01/21 07:55:31;;;;;;;;;;;14.30;99.90;;;13.51;100.00;100987.84;5072335;28;19946;-64
2021/01/21 07:58:20;;;;;;;;;;;14.20;99.90;;;13.47;100.00;100984.09;5072078;28;19925;-63
2021/01/21 08:00:48;;;;;;;;;;;14.20;99.90;;;13.44;100.00;100982.00;5065657;28;19931;-63
2021/01/21 08:03:25;;;;;;;;;;;14.10;99.90;;;13.45;100.00;100979.00;5072759;28;19925;-63
2021/01/21 08:06:03;;;;;;;;;;;14.10;99.90;;;13.49;100.00;100977.28;5072203;28;20340;-63
2021/01/21 08:08:31;;;;;;;;;;;14.10;99.90;;;13.52;100.00;100979.41;5072380;28;19939;-63
2021/01/21 08:11:02;;;;;;;;;;;14.20;99.90;;;13.58;100.00;100972.75;5072007;28;20288;-63
2021/01/21 08:13:29;;;;;;;;;;;14.20;99.90;;;13.66;100.00;100982.06;5072859;28;19931;-63
2021/01/21 08:15:56;;;;;;;;;;;14.30;99.90;;;13.72;100.00;100980.84;5071727;28;20430;-63
2021/01/21 08:18:24;;;;;;;;;;;14.40;99.90;;;13.79;100.00;100989.38;5072049;28;19928;-63
2021/01/21 08:20:51;;;;;;;;;;;14.40;99.90;;;13.81;100.00;100983.63;5072040;28;19978;-63
2021/01/21 08:23:18;;;;;;;;;;;14.50;99.90;;;13.87;100.00;100991.34;5072607;28;19997;-63
2021/01/21 08:25:47;;;;;;;;;;;14.50;99.90;;;13.90;100.00;100993.47;5071871;28;19982;-63
2021/01/21 08:28:16;;;;;;;;;;;14.60;99.90;;;13.93;100.00;100995.56;5071797;28;19928;-63
2021/01/21 08:30:44;;;;;;;;;;;14.60;99.90;;;13.95;100.00;100998.78;5071951;28;19932;-63
2021/01/21 08:33:14;;;;;;;;;;;14.60;99.90;;;13.98;100.00;101000.88;5072549;28;19924;-63
2021/01/21 08:35:46;;;;;;;;;;;14.60;99.90;;;14.04;100.00;100996.91;5072138;28;20350;-63
2021/01/21 08:38:14;;;;;;;;;;;14.70;99.90;;;14.08;100.00;100988.97;5071660;28;19947;-62
2021/01/21 08:40:42;;;;;;;;;;;14.70;99.90;;;14.11;100.00;101000.03;5071737;28;20405;-63
2021/01/21 08:43:11;;;;;;;;;;;14.80;99.90;;;14.20;100.00;101008.25;5072433;28;19932;-63
2021/01/21 08:45:38;;;;;;;;;;;14.80;99.90;;;14.20;100.00;101003.59;5071952;28;19924;-63
2021/01/21 08:48:06;;;;;;;;;;;14.90;99.90;;;14.22;100.00;101030.50;5071488;28;19936;-63
2021/01/21 08:50:37;;;;;;;;;;;14.90;99.90;;;14.19;100.00;101033.84;5071598;28;19928;-63
2021/01/21 08:53:08;;;;;;;;;;;14.80;99.90;;;14.14;100.00;101023.88;5072591;28;19925;-63
2021/01/21 08:55:45;;;;;;;;;;;14.80;99.90;;;14.09;100.00;101024.00;5071919;28;19967;-63
2021/01/21 08:58:15;;;;;;;;;;;14.70;99.90;;;14.06;100.00;101035.50;5071290;28;19924;-63
2021/01/21 09:01:00;;;;;;;;;;;14.70;99.90;;;14.09;100.00;101044.97;5071588;28;19925;-63
2021/01/21 09:03:44;;;;;;;;;;;14.70;99.90;;;14.07;100.00;101042.53;5072144;28;19931;-63
2021/01/21 09:06:12;;;;;;;;;;;14.70;99.90;;;14.10;100.00;101041.13;5071590;28;19924;-63
2021/01/21 09:08:47;;;;;;;;;;;14.70;99.90;;;14.15;100.00;101033.66;5071545;28;19924;-63
2021/01/21 09:11:32;;;;;;;;;;;14.70;99.90;;;14.22;100.00;101044.13;5071530;28;19924;-63
2021/01/21 09:14:00;;;;;;;;;;;14.80;99.90;;;14.20;100.00;101052.56;5072131;28;19929;-63
2021/01/21 09:16:40;;;;;;;;;;;14.80;99.90;;;14.23;100.00;101048.41;5071398;28;19944;-63
2021/01/21 09:19:07;;;;;;;;;;;14.80;99.90;;;14.23;100.00;101054.66;5071957;28;20067;-63
2021/01/21 09:21:35;;;;;;;;;;;14.80;99.90;;;14.32;100.00;101057.44;5071372;28;19928;-63
2021/01/21 09:24:06;;;;;;;;;;;14.90;99.90;;;14.43;100.00;101047.97;5071992;28;19924;-63
2021/01/21 09:26:34;;;;;;;;;;;15.00;99.90;;;14.61;100.00;101032.56;5071897;28;19928;-63
2021/01/21 09:29:02;;;;;;;;;;;15.20;99.90;;;14.93;100.00;101034.97;5075456;28;19924;-63
2021/01/21 09:31:30;;;;;;;;;;;15.40;99.90;;;15.19;100.00;101030.44;5075068;28;20296;-64
2021/01/21 09:33:58;;;;;;;;;;;15.70;99.90;;;15.37;100.00;101039.47;5075683;28;19924;-63
2021/01/21 09:36:29;;;;;;;;;;;15.90;99.90;;;15.57;100.00;101043.53;5074857;28;19928;-63
2021/01/21 09:38:56;;;;;;;;;;;16.10;99.90;;;15.53;100.00;101045.31;5075166;28;20322;-63
2021/01/21 09:41:24;;;;;;;;;;;16.10;99.90;;;15.58;100.00;101051.41;5074915;28;19925;-63
2021/01/21 09:43:51;;;;;;;;;;;16.10;99.90;;;15.68;100.00;101031.25;5075371;28;20444;-63
2021/01/21 09:46:19;;;;;;;;;;;16.20;99.90;;;15.73;100.00;101039.25;5074758;28;19948;-63
2021/01/21 09:48:46;;;;;;;;;;;16.30;99.90;;;15.73;100.00;101050.16;5074871;28;19924;-63
2021/01/21 09:51:14;;;;;;;;;;;16.30;99.90;;;15.81;100.00;101065.72;5074825;28;19936;-63
2021/01/21 09:53:41;;;;;;;;;;;16.30;99.90;;;15.83;100.00;101050.69;5075233;28;19929;-63
2021/01/21 09:56:08;;;;;;;;;;;16.40;99.90;;;15.81;100.00;101052.09;5074598;28;19924;-63
2021/01/21 09:58:35;;;;;;;;;;;16.40;99.90;;;15.81;100.00;101061.06;5074552;28;19924;-63
2021/01/21 10:01:04;;;;;;;;;;;16.40;99.90;;;15.76;100.00;101068.59;5074001;28;20143;-63
2021/01/21 10:03:32;;;;;;;;;;;16.40;99.90;;;15.64;100.00;101071.97;5074975;28;19978;-63
2021/01/21 10:05:59;;;;;;;;;;;16.30;99.90;;;15.66;100.00;101071.63;5074823;28;19924;-65
2021/01/21 10:08:26;;;;;;;;;;;16.30;99.90;;;15.78;100.00;101075.34;5074467;28;19925;-65
2021/01/21 10:10:54;;;;;;;;;;;16.30;99.90;;;15.93;100.00;101081.47;5074336;28;19928;-64
2021/01/21 10:13:21;;;;;;;;;;;16.50;99.90;;;16.03;100.00;101081.97;5074798;28;19951;-65
2021/01/21 10:15:48;;;;;;;;;;;16.50;99.90;;;16.11;100.00;101083.88;5074502;28;19928;-63
2021/01/21 10:18:15;;;;;;;;;;;16.60;99.90;;;16.12;100.00;101087.41;5074207;28;19924;-63
2021/01/21 10:20:43;;;;;;;;;;;16.60;99.90;;;16.27;100.00;101093.22;5074194;28;19928;-63
2021/01/21 10:23:10;;;;;;;;;;;16.70;99.90;;;16.35;100.00;101102.53;5074786;28;20457;-63
2021/01/21 10:25:37;;;;;;;;;;;16.80;99.90;;;16.25;100.00;101075.56;5074248;28;19948;-63
2021/01/21 10:28:05;;;;;;;;;;;16.80;99.90;;;16.18;100.00;101083.41;5073766;28;20537;-63
2021/01/21 10:30:32;;;;;;;;;;;16.70;99.90;;;16.14;100.00;101085.97;5074220;28;19978;-63
2021/01/21 10:32:59;;;;;;;;;;;16.70;99.90;;;16.17;100.00;101088.06;5074584;28;20295;-63
2021/01/21 10:35:26;;;;;;;;;;;16.70;99.90;;;16.27;100.00;101095.13;5074659;28;19979;-64
2021/01/21 10:37:54;;;;;;;;;;;16.80;99.90;;;16.54;100.00;101085.78;5073576;28;20345;-63
2021/01/21 10:40:21;;;;;;;;;;;17.00;99.90;;;16.85;100.00;101070.03;5073918;28;19924;-63
2021/01/21 10:42:49;;;;;;;;;;;17.20;99.90;;;16.98;100.00;101077.25;5074095;28;20390;-64
2021/01/21 10:45:16;;;;;;;;;;;17.40;99.90;;;17.03;100.00;101077.06;5074394;28;20371;-64
2021/01/21 10:47:43;;;;;;;;;;;17.50;99.90;;;17.15;100.00;101070.91;5073517;28;19932;-63
2021/01/21 10:50:12;;;;;;;;;;;17.60;99.90;;;17.19;98.76;101083.59;5073757;28;19928;-63
2021/01/21 10:52:39;;;;;;;;;;;17.60;99.90;;;17.20;98.08;101077.00;5073866;28;19978;-63
2021/01/21 10:55:08;;;;;;;;;;;17.60;99.90;;;17.33;98.71;101092.38;5074145;28;19931;-63
2021/01/21 10:57:35;;;;;;;;;;;17.70;99.90;;;17.34;96.81;101088.53;5073242;28;19928;-63
2021/01/21 11:00:03;;;;;;;;;;;17.80;99.90;;;17.31;95.86;101075.50;5073700;28;20274;-64
2021/01/21 11:02:30;;;;;;;;;;;17.80;99.90;;;17.27;96.02;101063.63;5073607;28;19928;-63
2021/01/21 11:04:57;;;;;;;;;;;17.70;99.90;;;17.25;95.56;101056.88;5074119;28;19994;-63
2021/01/21 11:07:24;;;;;;;;;;;17.70;99.90;;;17.35;94.88;101072.94;5073072;28;19925;-63
2021/01/21 11:09:51;;;;;;;;;;;17.80;99.90;;;17.49;95.81;101074.28;5073422;28;20398;-63
2021/01/21 11:12:20;;;;;;;;;;;18.90;99.90;;;17.61;92.90;101078.28;5073498;28;20284;-64
2021/01/21 11:14:49;;;;;;;;;;;18.00;99.90;;;17.73;95.86;101073.69;5073708;28;19932;-63